Time;durP1;ratioP1;P1;durP2;ratioP2;P2;SDS_P1;SDS_P2;PMS_P1;PMS_P2;Temp;Humidity;BMP_temperature;BMP_pressure;BME280_temperature;BME280_humidity;BME280_pressure;Samples;Min_cycle;Max_cycle;Signal;HPM_P1;HPM_P2
2023/07/20 00:01:36;;;;;;;17.30;9.70;;;;;;;16.52;72.81;98073.29;135780;1274;22531;-82
2023/07/20 00:04:38;;;;;;;15.00;9.30;;;;;;;16.26;73.78;98071.42;135707;1275;22619;-82
2023/07/20 00:07:41;;;;;;;14.80;9.10;;;;;;;16.05;74.86;98069.27;135635;1275;22551;-82
2023/07/20 00:10:43;;;;;;;13.50;8.60;;;;;;;15.92;76.13;98067.63;135641;1274;22545;-82
2023/07/20 00:13:46;;;;;;;14.00;8.20;;;;;;;15.74;76.95;98067.50;135643;1274;22541;-84
2023/07/20 00:16:55;;;;;;;35.60;10.40;;;;;;;15.57;78.02;98066.39;135694;1275;22471;-83
2023/07/20 00:19:58;;;;;;;18.70;8.70;;;;;;;15.45;78.77;98062.75;135723;1274;22552;-81
2023/07/20 00:23:00;;;;;;;17.10;8.60;;;;;;;15.29;79.45;98055.18;135543;1275;25434;-82
2023/07/20 00:26:03;;;;;;;23.30;9.50;;;;;;;15.17;79.88;98054.89;135524;1274;24229;-84
2023/07/20 00:29:05;;;;;;;18.60;9.50;;;;;;;15.07;80.66;98054.91;135648;1275;22549;-83
2023/07/20 00:32:08;;;;;;;15.20;9.70;;;;;;;14.99;81.30;98050.52;135655;1275;22539;-82
2023/07/20 00:35:10;;;;;;;11.20;8.50;;;;;;;14.94;81.86;98047.27;135736;1274;22521;-83
2023/07/20 00:38:13;;;;;;;13.20;8.40;;;;;;;14.90;82.21;98040.50;135668;1275;24742;-84
2023/07/20 00:41:16;;;;;;;15.40;9.00;;;;;;;14.86;82.53;98038.66;135699;1274;22523;-81
2023/07/20 00:44:18;;;;;;;17.20;8.70;;;;;;;14.78;82.90;98034.08;135743;1274;25398;-83
2023/07/20 00:47:21;;;;;;;13.50;8.50;;;;;;;14.75;83.44;98043.23;135714;1269;22536;-83
2023/07/20 00:50:23;;;;;;;18.20;9.10;;;;;;;14.74;83.78;98044.46;135830;1274;25308;-81
2023/07/20 00:53:26;;;;;;;25.20;9.40;;;;;;;14.70;84.20;98045.55;135869;1275;22542;-81
2023/07/20 00:56:29;;;;;;;16.70;9.00;;;;;;;14.66;84.51;98043.70;135876;1275;22917;-82
2023/07/20 00:59:31;;;;;;;20.40;9.10;;;;;;;14.69;85.11;98041.55;135804;1275;22526;-81
2023/07/20 01:02:34;;;;;;;13.30;8.80;;;;;;;14.76;85.60;98047.59;135870;1274;22999;-82
2023/07/20 01:05:38;;;;;;;14.40;9.10;;;;;;;14.82;85.77;98047.14;136545;1274;22850;-81
2023/07/20 01:08:41;;;;;;;17.70;9.00;;;;;;;14.85;85.94;98051.30;136550;1275;22469;-82
2023/07/20 01:11:43;;;;;;;22.20;9.30;;;;;;;14.93;86.16;98051.31;136171;1275;22607;-77
2023/07/20 01:14:46;;;;;;;15.10;9.40;;;;;;;15.00;86.33;98051.89;135793;1275;22558;-81
2023/07/20 01:17:49;;;;;;;26.20;13.50;;;;;;;15.10;87.10;98052.74;135784;1274;22996;-82
2023/07/20 01:20:51;;;;;;;13.70;9.70;;;;;;;15.20;87.00;98048.52;135663;1275;22665;-82
2023/07/20 01:23:54;;;;;;;14.40;9.30;;;;;;;15.25;86.30;98042.63;135690;1275;22598;-82
2023/07/20 01:26:56;;;;;;;21.80;11.40;;;;;;;15.19;86.03;98043.29;135647;1275;22533;-83
2023/07/20 01:29:59;;;;;;;20.80;11.30;;;;;;;15.22;86.57;98051.13;135646;1274;22533;-82
2023/07/20 01:33:01;;;;;;;33.50;16.40;;;;;;;15.30;87.74;98055.51;135664;1275;23526;-80
2023/07/20 01:36:04;;;;;;;24.70;13.10;;;;;;;15.39;87.46;98061.82;135463;1275;22529;-80
2023/07/20 01:39:06;;;;;;;30.80;13.60;;;;;;;15.47;87.48;98067.80;135712;1275;25236;-83
2023/07/20 01:42:08;;;;;;;20.50;10.80;;;;;;;15.54;87.10;98068.38;135718;1274;22532;-82
2023/07/20 01:45:11;;;;;;;20.90;9.80;;;;;;;15.58;87.18;98067.43;135708;1274;22651;-81
2023/07/20 01:48:13;;;;;;;25.00;10.00;;;;;;;15.57;87.27;98072.00;135718;1275;22521;-83
2023/07/20 01:51:17;;;;;;;387.70;32.70;;;;;;;15.60;87.20;98075.30;135751;1275;22527;-83
2023/07/20 01:54:21;;;;;;;49.50;12.00;;;;;;;15.65;87.19;98075.39;135720;1274;22597;-83
2023/07/20 01:57:23;;;;;;;23.70;10.30;;;;;;;15.67;86.74;98072.89;135663;1274;22497;-83
2023/07/20 02:00:26;;;;;;;15.90;9.50;;;;;;;15.73;86.97;98073.82;135685;1274;25297;-82
2023/07/20 02:03:31;;;;;;;13.00;8.90;;;;;;;15.78;87.18;98094.77;135593;1275;22538;-83
2023/07/20 02:06:34;;;;;;;16.50;8.70;;;;;;;15.82;85.51;98064.14;135616;1275;22640;-83
2023/07/20 02:09:36;;;;;;;18.90;9.80;;;;;;;15.90;84.87;98101.70;135701;1275;22540;-82
2023/07/20 02:12:39;;;;;;;15.60;9.10;;;;;;;15.98;83.91;98096.63;135683;1275;22536;-83
2023/07/20 02:15:42;;;;;;;20.20;7.90;;;;;;;16.07;83.47;98104.86;135779;1275;22665;-82
2023/07/20 02:18:45;;;;;;;17.90;8.60;;;;;;;16.13;83.32;98121.21;135723;1274;26231;-81
2023/07/20 02:21:47;;;;;;;18.60;8.40;;;;;;;16.15;83.45;98124.85;135404;1275;24219;-81
2023/07/20 02:24:50;;;;;;;11.00;7.60;;;;;;;16.16;83.03;98136.95;135357;1275;25312;-81
2023/07/20 02:27:52;;;;;;;11.70;7.80;;;;;;;16.14;82.79;98122.08;135518;1251;23336;-83
2023/07/20 02:30:55;;;;;;;17.30;7.30;;;;;;;16.10;82.26;98120.92;135695;1274;22530;-83
2023/07/20 02:33:57;;;;;;;20.50;10.70;;;;;;;16.09;82.41;98136.40;135774;1274;22981;-82
2023/07/20 02:37:04;;;;;;;12.60;9.00;;;;;;;16.05;82.47;98143.33;135653;1274;22534;-81
2023/07/20 02:40:07;;;;;;;8.30;7.10;;;;;;;15.98;82.21;98148.38;135694;1275;24244;-83
2023/07/20 02:43:10;;;;;;;13.10;7.00;;;;;;;15.92;82.36;98160.97;135746;1275;22541;-83
2023/07/20 02:46:12;;;;;;;8.90;6.50;;;;;;;15.83;81.86;98157.46;135787;1275;22530;-81
2023/07/20 02:49:15;;;;;;;15.80;7.10;;;;;;;15.74;81.59;98164.67;135714;1274;22540;-82
2023/07/20 02:52:18;;;;;;;6.70;6.00;;;;;;;15.66;81.55;98164.66;135706;1275;22527;-84
2023/07/20 02:55:20;;;;;;;50.90;7.10;;;;;;;15.58;81.35;98152.66;135798;1274;26101;-81
2023/07/20 02:58:23;;;;;;;17.60;6.30;;;;;;;15.56;81.46;98148.11;135787;1274;22566;-83
2023/07/20 03:01:29;;;;;;;15.40;6.40;;;;;;;15.58;81.73;98144.06;135755;1274;22538;-81
2023/07/20 03:04:31;;;;;;;23.50;6.20;;;;;;;15.62;81.92;98139.29;135878;1275;22604;-81
2023/07/20 03:07:34;;;;;;;25.60;8.30;;;;;;;15.63;81.81;98145.59;135867;1274;22533;-81
2023/07/20 03:10:37;;;;;;;10.80;5.70;;;;;;;15.61;82.69;98153.51;135768;1274;24770;-81
2023/07/20 03:13:40;;;;;;;8.90;5.70;;;;;;;15.55;83.27;98149.02;135839;1274;24344;-82
2023/07/20 03:16:42;;;;;;;10.10;5.70;;;;;;;15.50;84.34;98134.90;135779;1275;24993;-81
2023/07/20 03:19:45;;;;;;;16.80;5.40;;;;;;;15.46;84.88;98143.58;135674;1275;22540;-83
2023/07/20 03:22:47;;;;;;;9.50;5.40;;;;;;;15.38;85.69;98169.14;135794;1275;22570;-82
2023/07/20 03:25:50;;;;;;;15.00;5.50;;;;;;;15.27;86.75;98208.23;135800;1274;24215;-83
2023/07/20 03:28:52;;;;;;;8.80;5.60;;;;;;;15.19;88.32;98251.67;135867;1273;22542;-82
2023/07/20 03:31:55;;;;;;;15.60;6.60;;;;;;;15.11;88.10;98246.71;135775;1274;22534;-83
2023/07/20 03:34:57;;;;;;;13.40;7.00;;;;;;;15.09;88.78;98239.92;135952;1275;23028;-80
2023/07/20 03:38:04;;;;;;;13.90;6.50;;;;;;;15.10;89.67;98239.90;136040;1275;24907;-84
2023/07/20 03:41:07;;;;;;;11.50;6.80;;;;;;;15.07;91.22;98243.27;136261;1274;22560;-82
2023/07/20 03:44:09;;;;;;;18.10;6.30;;;;;;;15.04;91.14;98263.83;136304;1275;22576;-82
2023/07/20 03:47:12;;;;;;;13.90;6.20;;;;;;;15.05;91.90;98264.52;136163;1275;25239;-83
2023/07/20 03:50:14;;;;;;;11.40;6.20;;;;;;;15.06;93.13;98244.86;136376;1275;22570;-83
2023/07/20 03:53:17;;;;;;;8.40;5.90;;;;;;;15.12;93.33;98246.02;136271;1274;25288;-83
2023/07/20 03:56:19;;;;;;;8.00;5.80;;;;;;;15.12;93.07;98248.29;136366;1275;22548;-82
2023/07/20 03:59:23;;;;;;;13.00;6.00;;;;;;;15.13;93.94;98256.14;136219;1275;22532;-81
2023/07/20 04:02:25;;;;;;;15.90;7.10;;;;;;;15.16;95.38;98265.23;136317;1275;22603;-81
2023/07/20 04:05:28;;;;;;;13.70;6.40;;;;;;;15.18;96.79;98275.89;135938;1274;22637;-81
2023/07/20 04:08:30;;;;;;;7.80;6.00;;;;;;;15.18;99.60;98275.89;135898;1274;23452;-81
2023/07/20 04:11:33;;;;;;;12.90;6.10;;;;;;;15.15;100.00;98274.35;135664;1275;22537;-83
2023/07/20 04:14:35;;;;;;;10.50;6.20;;;;;;;15.07;100.00;98276.56;135761;1275;23048;-82
2023/07/20 04:17:38;;;;;;;10.50;6.20;;;;;;;15.03;100.00;98271.38;135762;1275;22586;-82
2023/07/20 04:20:40;;;;;;;8.60;6.20;;;;;;;14.98;100.00;98273.73;136346;1275;22640;-83
2023/07/20 04:23:43;;;;;;;11.40;6.00;;;;;;;14.93;100.00;98264.17;136319;1274;24227;-83
2023/07/20 04:26:45;;;;;;;12.00;6.90;;;;;;;14.93;100.00;98256.98;136368;1275;22562;-83
2023/07/20 04:29:48;;;;;;;18.30;9.90;;;;;;;14.97;100.00;98250.44;136346;1275;22573;-82
2023/07/20 04:32:50;;;;;;;10.80;6.80;;;;;;;15.03;100.00;98258.23;136510;1274;22540;-82
2023/07/20 04:35:53;;;;;;;11.20;7.00;;;;;;;15.01;100.00;98271.06;136386;1274;26211;-83
2023/07/20 04:38:56;;;;;;;12.00;6.80;;;;;;;14.97;100.00;98284.26;136267;1274;24157;-83
2023/07/20 04:42:02;;;;;;;8.50;7.00;;;;;;;14.96;100.00;98292.67;136270;1274;24259;-83
2023/07/20 04:45:04;;;;;;;9.80;7.00;;;;;;;14.93;100.00;98286.41;136362;1274;22522;-83
2023/07/20 04:48:07;;;;;;;13.40;7.90;;;;;;;14.93;100.00;98269.42;136356;1274;22566;-83
2023/07/20 04:51:10;;;;;;;13.70;7.80;;;;;;;14.88;100.00;98263.88;136135;1274;22563;-84
2023/07/20 04:54:13;;;;;;;10.50;7.50;;;;;;;14.91;100.00;98289.77;136369;1275;22589;-80
2023/07/20 04:57:15;;;;;;;11.10;7.10;;;;;;;14.92;100.00;98300.44;136479;1274;22574;-78
2023/07/20 05:00:19;;;;;;;10.70;6.90;;;;;;;14.94;100.00;98305.14;136444;1274;22589;-79
2023/07/20 05:03:21;;;;;;;12.10;7.90;;;;;;;14.98;100.00;98292.66;134920;1274;22566;-78
2023/07/20 05:06:24;;;;;;;8.60;7.20;;;;;;;15.07;100.00;98277.10;135027;1274;25211;-78
2023/07/20 05:09:26;;;;;;;11.20;7.90;;;;;;;15.21;100.00;98274.77;135294;1274;22558;-80
2023/07/20 05:12:29;;;;;;;12.30;8.00;;;;;;;15.35;100.00;98273.67;135584;1274;22564;-79
2023/07/20 05:15:31;;;;;;;10.70;7.70;;;;;;;15.43;100.00;98271.79;135525;1275;22812;-78
2023/07/20 05:18:34;;;;;;;8.10;7.20;;;;;;;15.55;100.00;98268.98;135775;1274;22609;-79
2023/07/20 05:21:36;;;;;;;8.70;6.50;;;;;;;15.71;100.00;98261.02;136368;1274;22581;-79
2023/07/20 05:24:39;;;;;;;10.80;7.80;;;;;;;15.96;100.00;98262.31;136325;1274;22980;-79
2023/07/20 05:27:41;;;;;;;9.20;6.90;;;;;;;16.22;100.00;98264.26;136737;1275;25243;-76
2023/07/20 05:30:44;;;;;;;9.40;6.00;;;;;;;16.45;100.00;98252.20;136444;1274;22766;-77
2023/07/20 05:33:46;;;;;;;11.90;5.90;;;;;;;16.62;100.00;98262.06;135631;1274;25303;-77
2023/07/20 05:36:48;;;;;;;7.80;6.00;;;;;;;16.66;100.00;98274.64;135506;1274;22547;-77
2023/07/20 05:39:51;;;;;;;6.80;5.90;;;;;;;16.65;100.00;98278.52;136438;1274;22597;-78
2023/07/20 05:42:55;;;;;;;8.20;7.30;;;;;;;16.77;100.00;98273.71;136818;1274;24953;-77
2023/07/20 05:45:58;;;;;;;7.30;6.40;;;;;;;17.05;100.00;98269.20;135677;1274;22572;-76
2023/07/20 05:49:00;;;;;;;11.60;8.60;;;;;;;17.28;100.00;98271.13;134976;1274;22824;-77
2023/07/20 05:52:03;;;;;;;7.90;7.10;;;;;;;17.44;100.00;98269.35;134790;1274;22570;-76
2023/07/20 05:55:05;;;;;;;7.20;6.30;;;;;;;17.61;100.00;98267.68;134923;1274;22554;-77
2023/07/20 05:58:08;;;;;;;8.00;6.50;;;;;;;17.84;100.00;98271.69;135152;1275;22539;-79
2023/07/20 06:01:10;;;;;;;8.20;6.60;;;;;;;17.97;100.00;98280.16;134895;1274;22599;-78
2023/07/20 06:04:13;;;;;;;6.40;5.70;;;;;;;17.91;100.00;98279.41;134959;1274;24213;-78
2023/07/20 06:07:15;;;;;;;9.30;6.90;;;;;;;17.75;100.00;98284.93;134957;1275;22529;-78
2023/07/20 06:10:18;;;;;;;9.80;6.60;;;;;;;17.57;100.00;98290.11;134959;1275;24892;-78
2023/07/20 06:13:20;;;;;;;7.20;5.50;;;;;;;17.32;100.00;98293.88;134919;1272;22570;-78
2023/07/20 06:16:23;;;;;;;8.40;5.40;;;;;;;17.16;100.00;98300.92;134977;1275;22734;-80
2023/07/20 06:19:26;;;;;;;6.80;5.90;;;;;;;17.17;100.00;98301.44;135244;1275;22580;-81
2023/07/20 06:22:28;;;;;;;6.70;5.40;;;;;;;17.32;100.00;98303.91;134995;1274;22864;-79
2023/07/20 06:25:31;;;;;;;7.70;4.80;;;;;;;17.34;100.00;98300.17;135140;1275;22538;-78
2023/07/20 06:28:33;;;;;;;7.60;4.80;;;;;;;17.47;100.00;98302.35;135118;1275;22549;-79
2023/07/20 06:31:36;;;;;;;5.80;5.00;;;;;;;17.49;100.00;98297.18;135061;1275;22628;-78
2023/07/20 06:34:38;;;;;;;8.80;5.20;;;;;;;17.37;100.00;98292.73;134966;1274;22898;-78
2023/07/20 06:37:41;;;;;;;8.00;5.10;;;;;;;17.30;100.00;98295.33;134971;1274;22560;-78
2023/07/20 06:40:43;;;;;;;6.60;5.20;;;;;;;17.25;100.00;98294.40;134918;1274;22530;-78
2023/07/20 06:43:47;;;;;;;5.10;4.60;;;;;;;17.35;100.00;98295.41;134963;1273;22566;-80
2023/07/20 06:46:50;;;;;;;7.30;5.20;;;;;;;17.61;100.00;98294.09;134747;1274;22644;-78
2023/07/20 06:49:52;;;;;;;10.90;4.90;;;;;;;17.86;100.00;98302.43;135034;1274;22841;-78
2023/07/20 06:52:59;;;;;;;5.00;3.90;;;;;;;18.11;100.00;98298.59;134943;1275;22599;-78
2023/07/20 06:56:02;;;;;;;4.80;3.90;;;;;;;18.39;100.00;98286.06;135020;1274;22576;-78
2023/07/20 06:59:04;;;;;;;18.70;4.30;;;;;;;18.83;100.00;98281.77;134748;1274;22537;-77
2023/07/20 07:02:07;;;;;;;5.60;3.70;;;;;;;19.24;100.00;98284.08;134887;1275;22592;-79
2023/07/20 07:05:09;;;;;;;6.70;3.50;;;;;;;19.50;100.00;98285.00;134934;1274;22594;-77
2023/07/20 07:08:12;;;;;;;4.30;3.30;;;;;;;19.75;100.00;98281.36;134942;1274;22566;-79
2023/07/20 07:11:15;;;;;;;5.80;4.10;;;;;;;20.07;100.00;98276.56;134911;1257;22543;-79
2023/07/20 07:14:17;;;;;;;5.00;3.80;;;;;;;20.37;100.00;98277.27;134890;1274;22542;-79
2023/07/20 07:17:20;;;;;;;3.60;2.90;;;;;;;20.70;100.00;98276.06;134881;1274;22686;-79
2023/07/20 07:20:23;;;;;;;5.80;3.50;;;;;;;20.90;100.00;98276.38;134983;1264;23144;-80
2023/07/20 07:23:26;;;;;;;5.00;3.60;;;;;;;21.13;100.00;98280.80;135096;1275;22631;-79
2023/07/20 07:26:28;;;;;;;3.90;3.50;;;;;;;21.32;100.00;98281.80;135315;1275;25046;-78
2023/07/20 07:29:31;;;;;;;5.90;3.20;;;;;;;21.53;100.00;98281.66;135414;1274;23256;-79
2023/07/20 07:32:33;;;;;;;3.30;3.00;;;;;;;21.77;100.00;98285.48;135155;1275;22868;-79
2023/07/20 07:35:36;;;;;;;3.40;3.10;;;;;;;22.04;100.00;98285.58;135192;1274;22865;-79
2023/07/20 07:38:38;;;;;;;5.00;3.30;;;;;;;22.35;100.00;98287.08;135154;1275;26179;-78
2023/07/20 07:41:41;;;;;;;3.50;2.90;;;;;;;22.71;100.00;98290.07;135130;1274;22552;-80
2023/07/20 07:44:44;;;;;;;3.10;2.90;;;;;;;22.69;100.00;98295.28;135119;1274;22553;-80
2023/07/20 07:47:46;;;;;;;3.70;2.80;;;;;;;22.53;100.00;98297.09;135303;1275;22715;-80
2023/07/20 07:50:49;;;;;;;3.30;3.00;;;;;;;22.53;100.00;98300.98;135319;1275;22543;-80
2023/07/20 07:53:52;;;;;;;2.90;2.40;;;;;;;22.57;100.00;98301.14;135372;1275;25408;-80
2023/07/20 07:56:55;;;;;;;2.80;2.20;;;;;;;22.85;100.00;98299.70;135300;1274;22537;-80
2023/07/20 07:59:57;;;;;;;4.90;2.50;;;;;;;23.05;100.00;98296.48;135194;1274;25072;-80
2023/07/20 08:03:00;;;;;;;5.70;2.50;;;;;;;23.52;100.00;98294.61;135091;1275;23515;-80
2023/07/20 08:06:04;;;;;;;6.60;2.60;;;;;;;23.65;100.00;98300.05;135337;1274;22640;-80
2023/07/20 08:09:06;;;;;;;6.20;2.50;;;;;;;23.74;100.00;98297.63;135236;1258;24853;-80
2023/07/20 08:12:09;;;;;;;4.70;2.50;;;;;;;23.68;100.00;98297.38;135405;1275;22571;-80
2023/07/20 08:15:11;;;;;;;2.60;2.40;;;;;;;23.86;100.00;98301.83;135179;1274;22716;-80
2023/07/20 08:18:14;;;;;;;4.00;2.40;;;;;;;23.97;100.00;98299.67;135167;1274;22999;-81
2023/07/20 08:21:16;;;;;;;2.50;2.30;;;;;;;23.76;62.04;98306.73;135247;1275;22538;-79
2023/07/20 08:24:19;;;;;;;3.60;2.70;;;;;;;23.37;62.09;98307.58;135122;1275;26177;-79
2023/07/20 08:27:21;;;;;;;3.10;2.80;;;;;;;23.05;63.46;98303.95;135091;1275;23145;-80
2023/07/20 08:30:24;;;;;;;4.30;2.40;;;;;;;22.94;64.64;98306.06;135083;1274;22605;-77
2023/07/20 08:33:29;;;;;;;3.40;2.70;;;;;;;22.63;64.98;98312.43;135362;1274;22485;-79
2023/07/20 08:36:32;;;;;;;5.10;3.00;;;;;;;22.16;65.71;98317.49;135096;1275;22662;-79
2023/07/20 08:39:34;;;;;;;4.80;2.80;;;;;;;21.95;66.93;98316.80;134990;1274;22694;-78
2023/07/20 08:42:37;;;;;;;4.70;3.00;;;;;;;21.98;67.23;98317.19;134770;1274;22950;-77
2023/07/20 08:45:40;;;;;;;6.40;3.60;;;;;;;22.09;66.97;98320.44;135102;1275;25361;-79
2023/07/20 08:48:45;;;;;;;8.10;3.70;;;;;;;22.48;67.02;98317.89;134958;1274;22994;-79
2023/07/20 08:51:48;;;;;;;3.90;3.10;;;;;;;22.47;65.79;98321.30;135339;1275;26014;-80
2023/07/20 08:54:50;;;;;;;9.80;3.60;;;;;;;22.06;66.82;98325.34;135328;1274;22533;-79
2023/07/20 08:57:53;;;;;;;7.00;3.50;;;;;;;21.76;68.27;98322.70;135267;1270;22572;-80
2023/07/20 09:00:59;;;;;;;6.80;3.10;;;;;;;21.60;69.83;98319.77;135167;1274;22571;-79
2023/07/20 09:04:01;;;;;;;5.40;3.20;;;;;;;21.64;69.21;98320.15;135052;1274;22587;-79
2023/07/20 09:07:04;;;;;;;3.70;2.70;;;;;;;21.79;68.50;98325.07;135136;1274;22476;-79
2023/07/20 09:10:06;;;;;;;4.40;3.40;;;;;;;22.18;68.30;98325.21;135096;1275;23019;-79
2023/07/20 09:13:09;;;;;;;3.70;3.20;;;;;;;22.91;66.64;98315.42;135248;1274;24368;-82
2023/07/20 09:16:11;;;;;;;5.20;3.40;;;;;;;23.00;65.51;98311.63;136461;1264;24427;-80
2023/07/20 09:19:14;;;;;;;5.30;3.70;;;;;;;22.69;65.51;98317.63;134982;1275;22515;-78
2023/07/20 09:22:17;;;;;;;4.00;3.50;;;;;;;22.33;65.64;98324.57;135149;1274;24282;-82
2023/07/20 09:25:20;;;;;;;4.50;3.20;;;;;;;22.22;65.20;98331.56;136415;1274;22562;-81
2023/07/20 09:28:22;;;;;;;6.40;3.10;;;;;;;22.78;63.88;98326.66;136060;1274;22498;-82
2023/07/20 09:31:25;;;;;;;5.20;3.30;;;;;;;23.33;62.26;98325.70;136070;1275;22569;-79
2023/07/20 09:34:27;;;;;;;5.30;3.10;;;;;;;23.35;61.33;98335.91;135669;1275;22493;-79
2023/07/20 09:37:30;;;;;;;3.30;2.90;;;;;;;22.81;60.73;98346.72;135606;1275;23371;-82
2023/07/20 09:40:32;;;;;;;4.70;3.30;;;;;;;22.61;61.29;98346.02;136626;1274;23034;-78
2023/07/20 09:43:35;;;;;;;3.80;3.40;;;;;;;22.78;61.37;98345.81;135380;1274;24518;-80
2023/07/20 09:46:37;;;;;;;3.60;3.30;;;;;;;23.07;60.58;98345.55;135474;1275;22610;-79
2023/07/20 09:49:40;;;;;;;4.50;3.30;;;;;;;23.21;60.38;98345.09;135498;1274;22555;-82
2023/07/20 09:52:44;;;;;;;4.00;3.10;;;;;;;23.45;59.93;98341.28;136636;1257;22535;-80
2023/07/20 09:55:47;;;;;;;2.90;2.70;;;;;;;23.50;57.46;98347.05;136097;1274;22696;-77
2023/07/20 09:58:49;;;;;;;6.70;2.60;;;;;;;23.70;57.15;98343.46;136014;1274;25072;-78
2023/07/20 10:01:52;;;;;;;3.10;2.70;;;;;;;23.90;56.12;98337.67;135897;1274;22557;-79
2023/07/20 10:04:55;;;;;;;2.80;2.60;;;;;;;24.06;55.32;98337.21;135504;1274;23418;-79
2023/07/20 10:07:57;;;;;;;7.00;3.50;;;;;;;24.43;54.82;98337.52;135140;1274;22598;-78
2023/07/20 10:11:00;;;;;;;6.50;3.80;;;;;;;24.94;54.17;98332.10;135005;1274;22543;-79
2023/07/20 10:14:02;;;;;;;8.20;3.10;;;;;;;25.08;53.29;98337.42;134816;1273;22594;-79
2023/07/20 10:17:05;;;;;;;3.80;3.40;;;;;;;24.42;53.47;98342.89;134824;1269;22660;-80
2023/07/20 10:20:08;;;;;;;5.70;3.30;;;;;;;23.86;54.37;98347.30;134783;1275;22535;-80
2023/07/20 10:23:11;;;;;;;;;;;;;;;23.81;55.03;98341.86;134897;1274;22660;-80
2023/07/20 10:26:13;;;;;;;6.10;3.80;;;;;;;23.93;54.88;98339.87;134990;1275;22649;-80
2023/07/20 10:29:16;;;;;;;5.60;3.50;;;;;;;23.65;54.35;98349.76;135253;1274;22918;-80
2023/07/20 10:32:18;;;;;;;4.70;3.60;;;;;;;23.40;55.87;98347.89;134917;1274;22526;-80
2023/07/20 10:35:21;;;;;;;4.40;3.70;;;;;;;23.49;56.26;98348.55;136429;1259;22518;-80
2023/07/20 10:38:23;;;;;;;3.90;3.50;;;;;;;23.36;56.27;98340.27;134978;1275;25414;-80
2023/07/20 10:41:26;;;;;;;12.40;4.10;;;;;;;23.46;55.38;98341.58;135038;1274;22560;-77
2023/07/20 10:44:28;;;;;;;9.60;4.00;;;;;;;23.77;55.53;98337.46;135108;1274;23102;-81
2023/07/20 10:47:31;;;;;;;7.70;3.60;;;;;;;23.72;54.18;98341.97;135269;1275;24250;-79
2023/07/20 10:50:34;;;;;;;3.70;3.40;;;;;;;23.76;54.55;98341.59;134924;1275;25351;-80
2023/07/20 10:53:38;;;;;;;4.90;3.70;;;;;;;23.81;53.58;98343.61;134922;1274;23080;-80
2023/07/20 10:56:40;;;;;;;5.60;3.70;;;;;;;23.57;54.43;98349.60;134853;1269;22536;-80
2023/07/20 10:59:43;;;;;;;6.30;4.30;;;;;;;23.40;55.79;98340.42;134904;1274;22627;-79
2023/07/20 11:02:45;;;;;;;6.90;3.80;;;;;;;23.58;55.89;98341.73;134976;1274;22953;-81
2023/07/20 11:05:48;;;;;;;5.20;4.40;;;;;;;23.63;54.67;98343.83;134962;1274;22696;-79
2023/07/20 11:08:52;;;;;;;4.30;3.90;;;;;;;23.82;54.20;98340.95;135051;1266;22540;-79
2023/07/20 11:11:55;;;;;;;5.40;3.60;;;;;;;23.82;53.92;98343.95;135100;1275;22548;-79
2023/07/20 11:14:58;;;;;;;4.70;3.50;;;;;;;23.66;53.74;98339.40;134757;1275;22808;-79
2023/07/20 11:18:01;;;;;;;3.80;3.40;;;;;;;23.41;53.81;98340.77;135082;1274;24182;-80
2023/07/20 11:21:04;;;;;;;7.50;3.50;;;;;;;23.61;53.77;98340.70;135098;1275;26308;-80
2023/07/20 11:24:06;;;;;;;5.90;3.50;;;;;;;23.46;53.36;98335.75;134870;1274;23208;-80
2023/07/20 11:27:08;;;;;;;3.90;3.50;;;;;;;23.31;54.89;98334.85;135203;1274;25345;-81
2023/07/20 11:30:11;;;;;;;7.50;3.40;;;;;;;23.54;54.72;98331.10;136111;1275;224193;-81
2023/07/20 11:33:14;;;;;;;4.90;3.60;;;;;;;23.93;52.82;98322.79;136560;1274;22941;-81
2023/07/20 11:36:16;;;;;;;4.30;2.90;;;;;;;24.24;51.82;98323.37;136681;1274;22539;-81
2023/07/20 11:39:19;;;;;;;3.50;3.00;;;;;;;24.23;51.21;98322.67;136503;1274;22558;-80
2023/07/20 11:42:22;;;;;;;3.80;2.90;;;;;;;24.00;48.20;98328.30;136415;1274;23054;-82
2023/07/20 11:45:24;;;;;;;4.10;2.20;;;;;;;23.97;48.37;98324.70;136587;1274;22699;-81
2023/07/20 11:48:27;;;;;;;3.70;2.80;;;;;;;23.93;47.56;98326.02;136840;1275;23144;-82
2023/07/20 11:51:29;;;;;;;2.60;2.40;;;;;;;23.95;48.03;98316.84;136890;1275;22625;-80
2023/07/20 11:54:32;;;;;;;6.10;2.90;;;;;;;24.21;48.98;98318.89;136551;1275;22543;-79
2023/07/20 11:57:34;;;;;;;4.60;2.30;;;;;;;24.22;48.20;98325.40;136667;1274;22565;-79
2023/07/20 12:00:37;;;;;;;3.10;2.30;;;;;;;24.36;46.49;98324.17;135016;1274;24301;-80
2023/07/20 12:03:42;;;;;;;2.90;2.50;;;;;;;24.45;46.95;98318.71;136256;1274;23024;-81
2023/07/20 12:06:45;;;;;;;3.50;2.60;;;;;;;24.76;46.48;98314.40;136507;1274;22571;-80
2023/07/20 12:09:47;;;;;;;4.40;2.70;;;;;;;24.37;46.31;98314.67;136812;1275;22621;-81
2023/07/20 12:12:49;;;;;;;5.70;2.90;;;;;;;24.12;47.22;98316.99;136672;1274;22547;-79
2023/07/20 12:15:52;;;;;;;4.10;2.60;;;;;;;24.08;47.46;98321.27;136642;1274;22535;-80
2023/07/20 12:18:54;;;;;;;3.90;2.60;;;;;;;24.01;46.99;98321.85;136854;1274;22599;-80
2023/07/20 12:21:57;;;;;;;2.80;2.60;;;;;;;23.94;47.87;98328.42;136716;1275;22135;-79
2023/07/20 12:24:59;;;;;;;3.50;2.40;;;;;;;23.79;48.40;98325.08;136880;1274;22521;-80
2023/07/20 12:28:02;;;;;;;3.30;2.40;;;;;;;23.91;48.18;98330.17;136979;1275;22545;-80
2023/07/20 12:31:05;;;;;;;5.80;2.80;;;;;;;23.61;48.46;98333.77;137047;1274;23063;-79
2023/07/20 12:34:09;;;;;;;8.00;2.60;;;;;;;23.46;48.94;98336.45;136943;1272;22540;-80
2023/07/20 12:37:11;;;;;;;8.20;3.50;;;;;;;23.41;50.19;98335.58;136910;1274;22910;-80
2023/07/20 12:40:14;;;;;;;8.10;3.50;;;;;;;23.47;51.12;98340.13;136982;1275;22608;-80
2023/07/20 12:43:16;;;;;;;4.40;2.90;;;;;;;23.56;52.62;98340.63;136931;1274;22648;-80
2023/07/20 12:46:19;;;;;;;13.30;3.50;;;;;;;23.49;53.87;98344.64;136635;1274;22690;-79
2023/07/20 12:49:21;;;;;;;14.00;3.60;;;;;;;23.50;55.28;98347.46;134864;1274;22557;-79
2023/07/20 12:52:24;;;;;;;2.70;2.40;;;;;;;23.44;56.22;98344.15;135012;1275;27101;-80
2023/07/20 12:55:26;;;;;;;6.30;2.70;;;;;;;23.34;56.55;98338.23;136516;1274;22596;-81
2023/07/20 12:58:29;;;;;;;2.60;2.20;;;;;;;23.72;55.69;98331.10;136393;1272;23298;-80
2023/07/20 13:01:31;;;;;;;13.90;2.60;;;;;;;24.20;53.40;98327.82;136521;1274;22577;-80
2023/07/20 13:04:34;;;;;;;6.90;2.60;;;;;;;24.69;52.18;98324.20;136651;1274;22526;-80
2023/07/20 13:07:36;;;;;;;2.70;2.40;;;;;;;25.04;50.70;98319.29;136713;1274;22939;-80
2023/07/20 13:10:39;;;;;;;6.80;2.20;;;;;;;24.95;51.14;98316.04;136853;1270;22975;-80
2023/07/20 13:13:41;;;;;;;9.30;2.30;;;;;;;25.55;50.77;98317.18;136600;1274;22621;-80
2023/07/20 13:16:44;;;;;;;8.60;2.50;;;;;;;26.24;47.84;98324.58;136695;1275;22642;-78
2023/07/20 13:19:46;;;;;;;2.80;2.10;;;;;;;26.21;45.82;98332.27;134882;1269;22546;-80
2023/07/20 13:22:52;;;;;;;7.20;2.20;;;;;;;25.83;46.01;98328.08;134829;1274;24995;-79
2023/07/20 13:25:54;;;;;;;3.60;2.20;;;;;;;26.27;45.40;98330.30;134921;1274;22626;-79
2023/07/20 13:28:57;;;;;;;4.60;2.20;;;;;;;26.52;45.04;98331.14;136550;1274;22541;-80
2023/07/20 13:31:59;;;;;;;10.80;2.80;;;;;;;25.83;45.54;98346.92;134881;1274;22726;-77
2023/07/20 13:35:02;;;;;;;12.70;2.80;;;;;;;24.27;50.79;98385.20;134787;1274;23064;-78
2023/07/20 13:38:05;;;;;;;4.50;1.90;;;;;;;22.32;57.24;98386.58;134920;1274;24199;-79
2023/07/20 13:41:07;;;;;;;10.20;1.80;;;;;;;20.77;58.89;98376.23;135150;1274;22529;-80
2023/07/20 13:44:10;;;;;;;5.30;1.80;;;;;;;20.05;60.37;98369.71;135251;1274;22537;-80
2023/07/20 13:47:12;;;;;;;5.80;2.30;;;;;;;20.01;62.51;98363.86;135299;1274;22526;-81
2023/07/20 13:50:15;;;;;;;2.80;1.90;;;;;;;20.53;63.19;98358.89;136166;1274;22557;-79
2023/07/20 13:53:17;;;;;;;2.80;1.80;;;;;;;21.05;62.77;98354.16;135132;1274;23509;-80
2023/07/20 13:56:20;;;;;;;2.50;1.80;;;;;;;21.12;60.89;98351.95;134936;1274;22551;-79
2023/07/20 13:59:22;;;;;;;2.40;2.10;;;;;;;21.39;63.08;98347.73;135069;1274;26033;-78
2023/07/20 14:02:25;;;;;;;13.50;6.70;;;;;;;21.61;62.10;98346.80;135162;1274;22580;-78